createdAt,value
2023-04-02T00:00:10.547Z,99431.91
2023-04-02T00:03:15.482Z,99438.78
2023-04-02T00:06:32.994Z,99440.41
2023-04-02T00:09:38.078Z,99437.16
2023-04-02T00:12:40.766Z,99425.00
2023-04-02T00:15:47.164Z,99437.47
2023-04-02T00:18:55.596Z,99433.84
2023-04-02T00:22:00.487Z,99433.34
2023-04-02T00:25:12.373Z,99432.34
2023-04-02T00:28:24.358Z,99421.87
2023-04-02T00:31:27.608Z,99426.59
2023-04-02T00:34:36.856Z,99431.06
2023-04-02T00:37:42.220Z,99432.19
2023-04-02T00:40:44.725Z,99436.75
2023-04-02T00:43:51.408Z,99436.28
2023-04-02T00:46:53.890Z,99437.59
2023-04-02T00:50:01.626Z,99442.84
2023-04-02T00:53:11.669Z,99441.34
2023-04-02T00:56:39.081Z,99445.63
2023-04-02T01:00:12.121Z,99446.06
2023-04-02T01:03:29.901Z,99440.38
2023-04-02T01:06:37.288Z,99448.56
2023-04-02T01:10:11.480Z,99431.34
2023-04-02T01:13:37.265Z,99444.44
2023-04-02T01:16:54.034Z,99449.38
2023-04-02T01:20:37.414Z,99447.25
2023-04-02T01:23:40.032Z,99451.84
2023-04-02T01:27:18.773Z,99443.50
2023-04-02T01:30:22.270Z,99452.00
2023-04-02T01:33:29.976Z,99433.97
2023-04-02T01:36:40.990Z,99438.88
2023-04-02T01:40:04.925Z,99449.19
2023-04-02T01:43:27.418Z,99455.22
2023-04-02T01:46:32.860Z,99451.47
2023-04-02T01:49:35.857Z,99451.47
2023-04-02T01:52:41.858Z,99458.00
2023-04-02T01:55:47.077Z,99457.69
2023-04-02T01:58:50.097Z,99436.72
2023-04-02T02:01:58.999Z,99464.69
2023-04-02T02:05:02.231Z,99451.28
2023-04-02T02:08:15.497Z,99461.47
2023-04-02T02:11:21.653Z,99457.84
2023-04-02T02:14:27.021Z,99459.31
2023-04-02T02:17:34.662Z,99461.91
2023-04-02T02:20:37.640Z,99448.94
2023-04-02T02:23:40.280Z,99447.69
2023-04-02T02:26:46.362Z,99453.06
2023-04-02T02:30:13.257Z,99466.50
2023-04-02T02:33:27.025Z,99459.31
2023-04-02T02:36:51.591Z,99446.34
2023-04-02T02:40:05.418Z,99472.72
2023-04-02T02:43:12.151Z,99452.91
2023-04-02T02:46:20.743Z,99455.72
2023-04-02T02:49:32.830Z,99458.31
2023-04-02T02:52:38.212Z,99472.06
2023-04-02T02:55:41.280Z,99457.63
2023-04-02T02:58:44.630Z,99472.06
2023-04-02T03:01:48.266Z,99469.28
2023-04-02T03:04:54.110Z,99469.63
2023-04-02T03:07:58.733Z,99466.03
2023-04-02T03:11:02.104Z,99478.16
2023-04-02T03:14:22.469Z,99475.69
2023-04-02T03:17:39.737Z,99462.25
2023-04-02T03:20:53.534Z,99476.34
2023-04-02T03:24:05.822Z,99483.19
2023-04-02T03:27:37.309Z,99468.94
2023-04-02T03:30:52.992Z,99482.53
2023-04-02T03:33:59.448Z,99484.84
2023-04-02T03:37:32.259Z,99459.13
2023-04-02T03:40:42.802Z,99480.25
2023-04-02T03:43:54.820Z,99466.00
2023-04-02T03:47:26.419Z,99468.25
2023-04-02T03:50:33.500Z,99485.41
2023-04-02T03:53:36.338Z,99469.84
2023-04-02T03:56:40.112Z,99495.69
2023-04-02T03:59:56.382Z,99488.66
2023-04-02T04:03:08.295Z,99495.06
2023-04-02T04:06:27.608Z,99496.38
2023-04-02T04:09:35.187Z,99479.34
2023-04-02T04:12:43.914Z,99502.25
2023-04-02T04:15:54.430Z,99503.69
2023-04-02T04:19:06.672Z,99507.47
2023-04-02T04:22:11.449Z,99500.72
2023-04-02T04:25:29.621Z,99505.13
2023-04-02T04:29:32.089Z,99517.88
2023-04-02T04:32:39.288Z,99527.22
2023-04-02T04:35:53.124Z,99526.22
2023-04-02T04:39:00.657Z,99517.03
2023-04-02T04:42:06.019Z,99535.19
2023-04-02T04:45:40.882Z,99531.91
2023-04-02T04:49:00.487Z,99547.06
2023-04-02T04:52:14.604Z,99539.88
2023-04-02T04:55:24.644Z,99523.25
2023-04-02T04:58:41.013Z,99542.16
2023-04-02T05:02:07.630Z,99514.56
2023-04-02T05:05:20.148Z,99530.44
2023-04-02T05:08:30.592Z,99530.53
2023-04-02T05:11:41.319Z,99527.75
2023-04-02T05:15:03.184Z,99518.09
2023-04-02T05:18:09.129Z,99538.97
2023-04-02T05:21:24.137Z,99540.81
2023-04-02T05:24:53.517Z,99538.28
2023-04-02T05:28:14.844Z,99548.94
2023-04-02T05:31:26.737Z,99553.88
2023-04-02T05:34:35.224Z,99528.69
2023-04-02T05:37:40.032Z,99531.50
2023-04-02T05:40:48.281Z,99547.72
2023-04-02T05:44:01.168Z,99530.72
2023-04-02T05:47:19.596Z,99532.03
2023-04-02T05:50:40.070Z,99535.81
2023-04-02T05:54:03.949Z,99553.31
2023-04-02T05:57:16.005Z,99567.13
2023-04-02T06:00:45.604Z,99561.56
2023-04-02T06:03:54.884Z,99578.09
2023-04-02T06:07:28.318Z,99579.91
2023-04-02T06:10:42.570Z,99577.34
2023-04-02T06:13:45.262Z,99577.19
2023-04-02T06:16:48.935Z,99583.25
2023-04-02T06:19:55.333Z,99570.78
2023-04-02T06:23:07.774Z,99588.47
2023-04-02T06:26:31.678Z,99578.81
2023-04-02T06:29:39.933Z,99587.66
2023-04-02T06:32:42.778Z,99583.06
2023-04-02T06:35:50.996Z,99597.28
2023-04-02T06:39:04.189Z,99577.78
2023-04-02T06:42:21.822Z,99577.97
2023-04-02T06:45:30.469Z,99587.22
2023-04-02T06:48:37.891Z,99573.03
2023-04-02T06:51:41.767Z,99600.13
2023-04-02T06:54:44.676Z,99597.69
2023-04-02T06:57:48.595Z,99602.03
2023-04-02T07:00:52.525Z,99607.09
2023-04-02T07:03:56.489Z,99610.03
2023-04-02T07:07:00.056Z,99592.66
2023-04-02T07:10:03.268Z,99608.75
2023-04-02T07:13:06.416Z,99614.91
2023-04-02T07:16:16.132Z,99597.03
2023-04-02T07:19:21.799Z,99584.88
2023-04-02T07:22:26.869Z,99605.91
2023-04-02T07:25:30.426Z,99596.78
2023-04-02T07:28:33.262Z,99615.34
2023-04-02T07:31:38.382Z,99606.38
2023-04-02T07:34:41.589Z,99605.16
2023-04-02T07:37:44.295Z,99619.63
2023-04-02T07:40:47.072Z,99612.03
2023-04-02T07:43:49.772Z,99617.22
2023-04-02T07:46:52.379Z,99620.91
2023-04-02T07:49:55.028Z,99635.78
2023-04-02T07:52:57.421Z,99633.47
2023-04-02T07:56:02.875Z,99644.00
2023-04-02T07:59:05.437Z,99644.13
2023-04-02T08:02:19.312Z,99635.09
2023-04-02T08:05:22.607Z,99627.66
2023-04-02T08:08:25.915Z,99634.28
2023-04-02T08:11:31.806Z,99649.13
2023-04-02T08:14:34.474Z,99643.13
2023-04-02T08:17:37.277Z,99645.63
2023-04-02T08:20:39.988Z,99653.19
2023-04-02T08:23:43.117Z,99655.53
2023-04-02T08:26:46.452Z,99668.25
2023-04-02T08:29:49.074Z,99672.84
2023-04-02T08:32:51.468Z,99674.16
2023-04-02T08:35:54.277Z,99674.94
2023-04-02T08:38:56.859Z,99680.06
2023-04-02T08:42:37.216Z,99675.91
2023-04-02T08:45:50.607Z,99667.91
2023-04-02T08:48:57.993Z,99676.50
2023-04-02T08:52:00.901Z,99674.84
2023-04-02T08:55:13.278Z,99658.25
2023-04-02T08:58:30.551Z,99673.81
2023-04-02T09:01:49.504Z,99681.63
2023-04-02T09:04:52.285Z,99678.81
2023-04-02T09:07:58.685Z,99682.66
2023-04-02T09:11:17.864Z,99681.37
2023-04-02T09:14:32.536Z,99685.06
2023-04-02T09:17:46.388Z,99690.53
2023-04-02T09:20:56.027Z,99691.41
2023-04-02T09:23:58.345Z,99688.69
2023-04-02T09:27:01.303Z,99688.47
2023-04-02T09:30:11.196Z,99691.50
2023-04-02T09:33:13.960Z,99695.84
2023-04-02T09:36:34.219Z,99695.41
2023-04-02T09:39:36.904Z,99703.91
2023-04-02T09:42:39.394Z,99707.91
2023-04-02T09:45:44.337Z,99708.88
2023-04-02T09:48:53.553Z,99693.75
2023-04-02T09:52:11.331Z,99713.38
2023-04-02T09:55:21.970Z,99716.06
2023-04-02T09:58:24.644Z,99716.03
2023-04-02T10:01:31.035Z,99717.06
2023-04-02T10:04:44.816Z,99712.97
2023-04-02T10:07:50.150Z,99715.84
2023-04-02T10:10:57.063Z,99723.38
2023-04-02T10:14:04.856Z,99721.66
2023-04-02T10:17:16.079Z,99719.44
2023-04-02T10:20:22.996Z,99698.78
2023-04-02T10:23:29.823Z,99701.59
2023-04-02T10:27:04.119Z,99712.22
2023-04-02T10:30:27.257Z,99717.97
2023-04-02T10:33:44.813Z,99711.91
2023-04-02T10:37:03.617Z,99714.56
2023-04-02T10:40:32.142Z,99705.41
2023-04-02T10:43:38.979Z,99707.03
2023-04-02T10:46:50.907Z,99680.56
2023-04-02T10:50:32.371Z,99698.06
2023-04-02T10:54:13.096Z,99705.13
2023-04-02T10:57:41.265Z,99708.34
2023-04-02T11:00:46.730Z,99706.81
2023-04-02T11:04:32.403Z,99705.44
2023-04-02T11:07:45.443Z,99700.31
2023-04-02T11:10:59.146Z,99686.91
2023-04-02T11:14:10.049Z,99704.59
2023-04-02T11:17:16.327Z,99695.91
2023-04-02T11:20:44.160Z,99684.28
2023-04-02T11:24:01.316Z,99693.91
2023-04-02T11:27:03.548Z,99673.75
2023-04-02T11:30:26.389Z,99691.53
2023-04-02T11:33:38.171Z,99690.38
2023-04-02T11:36:51.209Z,99684.84
2023-04-02T11:39:59.198Z,99676.00
2023-04-02T11:43:32.773Z,99663.22
2023-04-02T11:46:43.116Z,99678.53
2023-04-02T11:49:55.294Z,99666.44
2023-04-02T11:53:01.483Z,99676.91
2023-04-02T11:56:21.188Z,99672.84
2023-04-02T12:00:01.760Z,99677.62
2023-04-02T12:03:53.738Z,99684.47
2023-04-02T12:07:46.667Z,99661.16
2023-04-02T12:10:59.716Z,99671.53
2023-04-02T12:14:26.952Z,99663.66
2023-04-02T12:17:32.381Z,99661.72
2023-04-02T12:20:35.323Z,99663.25
2023-04-02T12:23:39.156Z,99666.22
2023-04-02T12:26:42.935Z,99665.31
2023-04-02T12:29:45.468Z,99653.16
2023-04-02T12:32:48.972Z,99658.63
2023-04-02T12:35:57.961Z,99651.34
2023-04-02T12:39:00.861Z,99650.22
2023-04-02T12:42:03.258Z,99650.59
2023-04-02T12:45:09.494Z,99656.38
2023-04-02T12:48:13.529Z,99643.03
2023-04-02T12:51:17.601Z,99644.69
2023-04-02T12:54:21.062Z,99649.22
2023-04-02T12:57:26.533Z,99628.13
2023-04-02T13:00:31.708Z,99636.50
2023-04-02T13:03:34.336Z,99636.19
2023-04-02T13:06:36.993Z,99639.44
2023-04-02T13:09:46.615Z,99641.88
2023-04-02T13:12:55.007Z,99639.75
2023-04-02T13:16:12.934Z,99643.31
2023-04-02T13:19:25.776Z,99644.88
2023-04-02T13:22:32.000Z,99642.63
2023-04-02T13:25:36.614Z,99640.44
2023-04-02T13:28:39.351Z,99649.75
2023-04-02T13:31:41.762Z,99650.91
2023-04-02T13:34:44.392Z,99650.13
2023-04-02T13:37:46.875Z,99636.03
2023-04-02T13:40:49.556Z,99638.47
2023-04-02T13:43:54.170Z,99652.28
2023-04-02T13:46:58.010Z,99643.91
2023-04-02T13:50:00.387Z,99637.53
2023-04-02T13:53:10.456Z,99648.41
2023-04-02T13:56:13.119Z,99656.22
2023-04-02T13:59:16.347Z,99655.81
2023-04-02T14:02:22.116Z,99646.69
2023-04-02T14:05:57.103Z,99645.19
2023-04-02T14:09:20.708Z,99651.50
2023-04-02T14:12:48.685Z,99637.44
2023-04-02T14:16:04.203Z,99643.59
2023-04-02T14:19:25.140Z,99637.66
2023-04-02T14:22:50.770Z,99635.19
2023-04-02T14:25:53.296Z,99644.19
2023-04-02T14:29:10.414Z,99662.31
2023-04-02T14:32:24.724Z,99643.81
2023-04-02T14:35:38.716Z,99660.44
2023-04-02T14:39:12.556Z,99667.78
2023-04-02T14:42:28.893Z,99692.50
2023-04-02T14:45:57.929Z,99669.72
2023-04-02T14:49:07.111Z,99701.53
2023-04-02T14:52:33.370Z,99691.84
2023-04-02T14:55:49.268Z,99712.78
2023-04-02T14:59:07.066Z,99709.81
2023-04-02T15:02:37.655Z,99724.13
2023-04-02T15:05:49.755Z,99721.25
2023-04-02T15:09:09.046Z,99740.50
2023-04-02T15:12:28.829Z,99735.50
2023-04-02T15:15:41.163Z,99757.06
2023-04-02T15:18:44.038Z,99756.69
2023-04-02T15:22:08.696Z,99788.78
2023-04-02T15:25:21.007Z,99806.19
2023-04-02T15:28:38.290Z,99812.75
2023-04-02T15:31:46.102Z,99806.84
2023-04-02T15:34:57.961Z,99795.37
2023-04-02T15:38:19.137Z,99780.13
2023-04-02T15:41:36.672Z,99801.91
2023-04-02T15:44:52.437Z,99792.72
2023-04-02T15:48:05.914Z,99797.03
2023-04-02T15:51:16.741Z,99800.47
2023-04-02T15:54:40.022Z,99785.88
2023-04-02T15:58:18.448Z,99783.06
2023-04-02T16:01:41.723Z,99783.56
2023-04-02T16:05:06.518Z,99777.16
2023-04-02T16:08:30.413Z,99768.25
2023-04-02T16:11:34.377Z,99771.19
2023-04-02T16:14:38.767Z,99753.62
2023-04-02T16:17:47.072Z,99760.00
2023-04-02T16:20:53.083Z,99778.75
2023-04-02T16:23:55.938Z,99787.28
2023-04-02T16:27:35.136Z,99777.59
2023-04-02T16:31:25.948Z,99792.69
2023-04-02T16:34:40.206Z,99799.28
2023-04-02T16:37:50.410Z,99801.44
2023-04-02T16:41:14.450Z,99794.81
2023-04-02T16:44:37.282Z,99809.59
2023-04-02T16:48:01.106Z,99821.56
2023-04-02T16:51:43.045Z,99820.75
2023-04-02T16:55:11.779Z,99834.72
2023-04-02T16:58:22.049Z,99818.81
2023-04-02T17:01:30.665Z,99837.00
2023-04-02T17:05:07.070Z,99836.69
2023-04-02T17:08:21.941Z,99842.97
2023-04-02T17:11:45.930Z,99856.56
2023-04-02T17:14:57.500Z,99861.19
2023-04-02T17:18:01.907Z,99855.09
2023-04-02T17:21:12.722Z,99868.41
2023-04-02T17:24:40.261Z,99866.91
2023-04-02T17:27:47.925Z,99851.47
2023-04-02T17:30:54.058Z,99873.44
2023-04-02T17:33:56.764Z,99868.81
2023-04-02T17:37:40.221Z,99881.09
2023-04-02T17:41:03.751Z,99889.31
2023-04-02T17:44:31.208Z,99893.06
2023-04-02T17:48:00.948Z,99894.69
2023-04-02T17:51:10.794Z,99895.00
2023-04-02T17:54:19.245Z,99907.38
2023-04-02T17:57:34.483Z,99898.97
2023-04-02T18:00:50.459Z,99906.56
2023-04-02T18:04:05.101Z,99912.31
2023-04-02T18:07:35.619Z,99916.81
2023-04-02T18:10:41.105Z,99925.66
2023-04-02T18:14:00.827Z,99924.41
2023-04-02T18:17:29.322Z,99928.75
2023-04-02T18:20:37.853Z,99945.16
2023-04-02T18:23:54.251Z,99945.16
2023-04-02T18:27:28.996Z,99957.63
2023-04-02T18:30:39.561Z,99962.81
2023-04-02T18:34:06.693Z,99964.03
2023-04-02T18:37:27.600Z,99977.94
2023-04-02T18:40:56.053Z,99979.59
2023-04-02T18:44:24.618Z,99970.09
2023-04-02T18:47:59.301Z,99996.53
2023-04-02T18:51:02.389Z,100004.50
2023-04-02T18:54:15.080Z,99980.81
2023-04-02T18:57:23.828Z,100010.59
2023-04-02T19:00:26.415Z,99995.09
2023-04-02T19:03:38.441Z,100022.06
2023-04-02T19:06:57.035Z,100007.63
2023-04-02T19:10:09.011Z,100006.94
2023-04-02T19:13:17.091Z,100030.41
2023-04-02T19:16:22.773Z,100026.41
2023-04-02T19:19:38.079Z,100034.25
2023-04-02T19:23:02.465Z,100042.38
2023-04-02T19:26:13.808Z,100044.72
2023-04-02T19:29:34.508Z,100048.94
2023-04-02T19:32:48.724Z,100054.66
2023-04-02T19:35:59.041Z,100058.31
2023-04-02T19:39:32.730Z,100065.16
2023-04-02T19:42:41.447Z,100068.09
2023-04-02T19:45:47.791Z,100076.75
2023-04-02T19:49:11.986Z,100085.50
2023-04-02T19:52:14.395Z,100090.41
2023-04-02T19:55:17.020Z,100096.34
2023-04-02T19:58:22.628Z,100092.81
2023-04-02T20:01:25.329Z,100100.53
2023-04-02T20:04:28.082Z,100092.88
2023-04-02T20:07:31.188Z,100110.22
2023-04-02T20:10:33.936Z,100097.59
2023-04-02T20:13:36.451Z,100123.19
2023-04-02T20:16:39.588Z,100104.06
2023-04-02T20:19:41.976Z,100113.06
2023-04-02T20:22:44.755Z,100127.16
2023-04-02T20:25:54.938Z,100136.00
2023-04-02T20:28:57.827Z,100143.00
2023-04-02T20:32:00.157Z,100123.13
2023-04-02T20:35:04.185Z,100131.38
2023-04-02T20:38:06.692Z,100142.31
2023-04-02T20:41:10.045Z,100149.47
2023-04-02T20:44:13.071Z,100149.75
2023-04-02T20:47:16.136Z,100139.22
2023-04-02T20:50:18.496Z,100163.19
2023-04-02T20:53:21.460Z,100167.53
2023-04-02T20:56:24.738Z,100155.34
2023-04-02T20:59:27.325Z,100160.00
2023-04-02T21:02:29.731Z,100192.19
2023-04-02T21:05:32.408Z,100201.59
2023-04-02T21:08:35.254Z,100185.53
2023-04-02T21:11:38.080Z,100197.00
2023-04-02T21:14:40.647Z,100202.06
2023-04-02T21:17:43.317Z,100196.47
2023-04-02T21:20:46.029Z,100218.25
2023-04-02T21:24:00.344Z,100210.44
2023-04-02T21:27:02.686Z,100219.97
2023-04-02T21:30:05.840Z,100229.03
2023-04-02T21:33:08.202Z,100226.06
2023-04-02T21:36:14.289Z,100224.09
2023-04-02T21:39:22.207Z,100232.69
2023-04-02T21:42:25.903Z,100228.50
2023-04-02T21:45:28.389Z,100233.56
2023-04-02T21:48:31.856Z,100216.16
2023-04-02T21:51:36.210Z,100220.13
2023-04-02T21:54:38.908Z,100251.09
2023-04-02T21:57:41.284Z,100251.91
2023-04-02T22:00:44.030Z,100247.91
2023-04-02T22:03:47.251Z,100235.47
2023-04-02T22:06:52.146Z,100261.59
2023-04-02T22:09:55.077Z,100242.06
2023-04-02T22:12:57.464Z,100251.53
2023-04-02T22:16:06.466Z,100252.16
2023-04-02T22:19:14.847Z,100258.34
2023-04-02T22:22:17.496Z,100276.25
2023-04-02T22:25:19.888Z,100277.13
2023-04-02T22:28:22.941Z,100280.66
2023-04-02T22:31:28.905Z,100273.91
2023-04-02T22:34:32.052Z,100284.50
2023-04-02T22:37:34.380Z,100263.56
2023-04-02T22:40:37.306Z,100296.09
2023-04-02T22:43:41.731Z,100296.72
2023-04-02T22:46:44.522Z,100283.81
2023-04-02T22:49:46.840Z,100283.78
2023-04-02T22:52:49.560Z,100293.88
2023-04-02T22:55:52.778Z,100298.25
2023-04-02T22:58:55.537Z,100301.06
2023-04-02T23:01:58.044Z,100286.91
2023-04-02T23:05:01.015Z,100314.22
2023-04-02T23:08:05.364Z,100313.41
2023-04-02T23:11:17.099Z,100289.72
2023-04-02T23:14:19.443Z,100295.03
2023-04-02T23:17:22.006Z,100296.41
2023-04-02T23:20:24.329Z,100319.59
2023-04-02T23:23:27.417Z,100309.09
2023-04-02T23:26:31.386Z,100321.25
2023-04-02T23:29:34.446Z,100329.34
2023-04-02T23:32:36.860Z,100321.25
2023-04-02T23:35:39.654Z,100322.06
2023-04-02T23:38:42.039Z,100317.97
2023-04-02T23:41:44.815Z,100324.03
2023-04-02T23:44:47.114Z,100324.16
2023-04-02T23:47:49.783Z,100329.78
2023-04-02T23:50:52.206Z,100336.44
2023-04-02T23:53:58.250Z,100321.87
2023-04-02T23:57:00.583Z,100341.50
